NOZ9LB LICA-ENGM
Flight info
| Callsign | NOZ9LB |
|---|---|
| Flight time | 3h 10m |
| Altitude | 40000 |
| Route | ARBUM DCT EVINO DCT BEDPI DCT BAGSI DCT APRAQ DCT HDO DCT SALLO DCT SABAK L997 REGMA DCT LUNIP |
| Aircraft | B38M/M-SDE2E3GHIJ1LRWXY/LB2 |
Departure
| Time | 2026-05-04 13:56 |
|---|---|
| Airport | Lamezia Terme Sant'Eufemia International Airport (LICA) |
Arrival
| Time | 2026-05-04 17:07 |
|---|---|
| Airport | Oslo-Gardermoen International Airport (ENGM) |
| Time | Latitude | Longitude | Altitude | Speed | Heading |
|---|---|---|---|---|---|
| 2026-05-04 13:26 | 38.90870 | 16.24533 | 34 ft | 0 kts | 52° |
| 2026-05-04 13:51 | 38.90870 | 16.24536 | 62 ft | 1 kts | 68° |
| 2026-05-04 13:52 | 38.90772 | 16.24575 | 34 ft | 14 kts | 152° |
| 2026-05-04 13:52 | 38.90714 | 16.24659 | 35 ft | 8 kts | 102° |
| 2026-05-04 13:52 | 38.90700 | 16.24763 | 35 ft | 16 kts | 96° |
| 2026-05-04 13:53 | 38.90684 | 16.24913 | 35 ft | 19 kts | 98° |
| 2026-05-04 13:53 | 38.90664 | 16.25077 | 36 ft | 19 kts | 99° |
| 2026-05-04 13:53 | 38.90646 | 16.25240 | 36 ft | 18 kts | 97° |
| 2026-05-04 13:54 | 38.90601 | 16.25628 | 35 ft | 26 kts | 98° |
| 2026-05-04 13:54 | 38.90577 | 16.25835 | 35 ft | 14 kts | 98° |
| 2026-05-04 13:54 | 38.90542 | 16.26130 | 35 ft | 19 kts | 98° |
| 2026-05-04 13:55 | 38.90512 | 16.26277 | 35 ft | 15 kts | 136° |
| 2026-05-04 13:55 | 38.90318 | 16.26277 | 36 ft | 11 kts | 208° |
| 2026-05-04 13:55 | 38.90312 | 16.26191 | 37 ft | 12 kts | 279° |
| 2026-05-04 13:56 | 38.90332 | 16.26020 | 34 ft | 35 kts | 278° |
| 2026-05-04 13:56 | 38.90408 | 16.25373 | 36 ft | 108 kts | 278° |
| 2026-05-04 13:56 | 38.90727 | 16.22671 | 686 ft | 170 kts | 278° |
| 2026-05-04 13:57 | 38.90928 | 16.21241 | 1779 ft | 163 kts | 279° |
| 2026-05-04 13:57 | 38.91135 | 16.19692 | 2430 ft | 183 kts | 279° |
| 2026-05-04 13:58 | 38.91735 | 16.14083 | 4528 ft | 238 kts | 278° |
| 2026-05-04 13:58 | 38.93297 | 16.10346 | 6404 ft | 250 kts | 317° |
| 2026-05-04 13:58 | 38.94665 | 16.08952 | 7326 ft | 253 kts | 323° |
| 2026-05-04 13:59 | 38.96074 | 16.07585 | 8329 ft | 254 kts | 323° |
| 2026-05-04 13:59 | 38.97489 | 16.06201 | 9298 ft | 259 kts | 323° |
| 2026-05-04 13:59 | 39.00507 | 16.03219 | 10724 ft | 282 kts | 322° |
| 2026-05-04 14:00 | 39.02067 | 16.01673 | 11662 ft | 286 kts | 322° |
| 2026-05-04 14:00 | 39.05262 | 15.98503 | 13663 ft | 295 kts | 322° |
| 2026-05-04 14:00 | 39.06903 | 15.96873 | 14602 ft | 300 kts | 321° |
| 2026-05-04 14:01 | 39.08560 | 15.95226 | 15609 ft | 302 kts | 321° |
| 2026-05-04 14:01 | 39.10236 | 15.93560 | 16588 ft | 306 kts | 321° |
| 2026-05-04 14:01 | 39.13639 | 15.90173 | 18505 ft | 312 kts | 320° |
| 2026-05-04 14:02 | 39.15367 | 15.88453 | 19320 ft | 315 kts | 320° |
| 2026-05-04 14:02 | 39.17083 | 15.86744 | 20148 ft | 317 kts | 321° |
| 2026-05-04 14:02 | 39.18836 | 15.84995 | 20936 ft | 320 kts | 321° |
| 2026-05-04 14:02 | 39.20600 | 15.83235 | 21749 ft | 322 kts | 321° |
| 2026-05-04 14:03 | 39.22375 | 15.81462 | 22564 ft | 323 kts | 321° |
| 2026-05-04 14:03 | 39.24159 | 15.79680 | 23374 ft | 326 kts | 321° |
| 2026-05-04 14:03 | 39.25980 | 15.77858 | 24115 ft | 328 kts | 321° |
| 2026-05-04 14:03 | 39.27761 | 15.76075 | 24790 ft | 329 kts | 321° |
| 2026-05-04 14:04 | 39.31401 | 15.72429 | 26138 ft | 333 kts | 320° |
| 2026-05-04 14:04 | 39.33261 | 15.70566 | 26792 ft | 336 kts | 320° |
| 2026-05-04 14:04 | 39.35115 | 15.68704 | 27039 ft | 350 kts | 320° |
| 2026-05-04 14:05 | 39.39157 | 15.64639 | 27172 ft | 385 kts | 321° |
| 2026-05-04 14:05 | 39.41301 | 15.62481 | 27454 ft | 394 kts | 320° |
| 2026-05-04 14:05 | 39.43462 | 15.60307 | 28104 ft | 395 kts | 320° |
| 2026-05-04 14:06 | 39.45639 | 15.58116 | 28616 ft | 398 kts | 320° |
| 2026-05-04 14:06 | 39.47831 | 15.55907 | 29192 ft | 400 kts | 320° |
| 2026-05-04 14:06 | 39.50031 | 15.53688 | 29738 ft | 402 kts | 320° |
| 2026-05-04 14:06 | 39.52243 | 15.51455 | 30252 ft | 404 kts | 320° |
| 2026-05-04 14:07 | 39.54466 | 15.49210 | 30701 ft | 407 kts | 320° |
| 2026-05-04 14:07 | 39.56700 | 15.46951 | 31230 ft | 407 kts | 320° |
| 2026-05-04 14:07 | 39.58937 | 15.44687 | 31738 ft | 409 kts | 320° |
| 2026-05-04 14:07 | 39.61181 | 15.42415 | 32246 ft | 410 kts | 320° |
| 2026-05-04 14:08 | 39.63422 | 15.40143 | 32867 ft | 408 kts | 320° |
| 2026-05-04 14:08 | 39.65646 | 15.37888 | 33563 ft | 404 kts | 320° |
| 2026-05-04 14:08 | 39.67850 | 15.35650 | 34257 ft | 400 kts | 319° |
| 2026-05-04 14:08 | 39.70043 | 15.33463 | 34855 ft | 397 kts | 323° |
| 2026-05-04 14:09 | 39.75229 | 15.30880 | 35928 ft | 402 kts | 339° |
| 2026-05-04 14:09 | 39.77920 | 15.29874 | 36413 ft | 402 kts | 339° |
| 2026-05-04 14:10 | 39.83296 | 15.27934 | 37365 ft | 400 kts | 340° |
| 2026-05-04 14:10 | 39.85984 | 15.26982 | 37827 ft | 400 kts | 340° |
| 2026-05-04 14:10 | 39.88662 | 15.26037 | 38296 ft | 399 kts | 340° |
| 2026-05-04 14:10 | 39.91340 | 15.25091 | 38774 ft | 398 kts | 340° |
| 2026-05-04 14:11 | 39.94013 | 15.24147 | 39102 ft | 398 kts | 340° |
| 2026-05-04 14:11 | 39.99378 | 15.22251 | 39618 ft | 401 kts | 340° |
| 2026-05-04 14:11 | 40.02076 | 15.21296 | 39873 ft | 402 kts | 340° |
| 2026-05-04 14:12 | 40.04784 | 15.20337 | 40095 ft | 404 kts | 340° |
| 2026-05-04 14:12 | 40.07507 | 15.19372 | 40148 ft | 407 kts | 340° |
| 2026-05-04 14:13 | 40.15692 | 15.16466 | 40145 ft | 407 kts | 340° |
| 2026-05-04 14:13 | 40.21156 | 15.14522 | 40144 ft | 407 kts | 340° |
| 2026-05-04 14:14 | 40.26626 | 15.12573 | 40147 ft | 407 kts | 340° |
| 2026-05-04 14:14 | 40.34825 | 15.09645 | 40153 ft | 407 kts | 340° |
| 2026-05-04 14:15 | 40.45782 | 15.05720 | 40164 ft | 409 kts | 340° |
| 2026-05-04 14:16 | 40.53084 | 15.03098 | 40158 ft | 409 kts | 340° |
| 2026-05-04 14:17 | 40.61316 | 15.00134 | 40168 ft | 409 kts | 340° |
| 2026-05-04 14:18 | 40.69561 | 14.97157 | 40150 ft | 409 kts | 340° |
| 2026-05-04 14:19 | 40.80546 | 14.93180 | 40197 ft | 410 kts | 340° |
| 2026-05-04 14:19 | 40.86063 | 14.91177 | 40161 ft | 412 kts | 340° |
| 2026-05-04 14:20 | 40.91594 | 14.89166 | 40169 ft | 412 kts | 340° |
| 2026-05-04 14:20 | 40.97115 | 14.87155 | 40162 ft | 411 kts | 340° |
| 2026-05-04 14:21 | 41.05402 | 14.84130 | 40167 ft | 413 kts | 340° |
| 2026-05-04 14:21 | 41.10944 | 14.82102 | 40158 ft | 413 kts | 340° |
| 2026-05-04 14:22 | 41.16481 | 14.80075 | 40148 ft | 413 kts | 340° |
| 2026-05-04 14:22 | 41.22022 | 14.78040 | 40151 ft | 413 kts | 340° |
| 2026-05-04 14:23 | 41.27717 | 14.76838 | 40153 ft | 421 kts | 352° |
| 2026-05-04 14:23 | 41.30651 | 14.76623 | 40126 ft | 422 kts | 352° |
| 2026-05-04 14:24 | 41.36480 | 14.76226 | 40134 ft | 423 kts | 352° |
| 2026-05-04 14:24 | 41.42405 | 14.75849 | 40131 ft | 423 kts | 352° |
| 2026-05-04 14:25 | 41.48250 | 14.75480 | 40129 ft | 424 kts | 352° |
| 2026-05-04 14:25 | 41.57099 | 14.74919 | 40104 ft | 424 kts | 352° |
| 2026-05-04 14:26 | 41.62996 | 14.74545 | 40110 ft | 424 kts | 352° |
| 2026-05-04 14:26 | 41.68895 | 14.74170 | 40101 ft | 426 kts | 352° |
| 2026-05-04 14:27 | 41.74833 | 14.73792 | 40097 ft | 428 kts | 352° |
| 2026-05-04 14:27 | 41.80774 | 14.73412 | 40115 ft | 428 kts | 352° |
| 2026-05-04 14:28 | 41.86715 | 14.73033 | 40092 ft | 427 kts | 352° |
| 2026-05-04 14:28 | 41.92661 | 14.72652 | 40087 ft | 428 kts | 352° |
| 2026-05-04 14:29 | 42.04542 | 14.71889 | 40088 ft | 427 kts | 352° |
| 2026-05-04 14:30 | 42.10482 | 14.71506 | 40091 ft | 428 kts | 352° |
| 2026-05-04 14:31 | 42.19418 | 14.70929 | 40093 ft | 429 kts | 352° |
| 2026-05-04 14:32 | 42.31355 | 14.70156 | 40087 ft | 431 kts | 352° |
| 2026-05-04 14:32 | 42.37356 | 14.69766 | 40083 ft | 432 kts | 352° |
| 2026-05-04 14:33 | 42.43358 | 14.69375 | 40082 ft | 432 kts | 352° |
| 2026-05-04 14:33 | 42.49367 | 14.68984 | 40089 ft | 432 kts | 352° |
| 2026-05-04 14:34 | 42.55345 | 14.68593 | 40085 ft | 434 kts | 352° |
| 2026-05-04 14:34 | 42.61373 | 14.68198 | 40083 ft | 434 kts | 352° |
| 2026-05-04 14:35 | 42.67402 | 14.67803 | 40085 ft | 434 kts | 352° |
| 2026-05-04 14:35 | 42.73435 | 14.67406 | 40082 ft | 435 kts | 352° |
| 2026-05-04 14:36 | 42.79478 | 14.67008 | 40078 ft | 435 kts | 352° |
| 2026-05-04 14:36 | 42.85525 | 14.66609 | 40081 ft | 435 kts | 352° |
| 2026-05-04 14:37 | 42.91571 | 14.66210 | 40092 ft | 436 kts | 353° |
| 2026-05-04 14:37 | 42.97643 | 14.65807 | 40084 ft | 437 kts | 353° |
| 2026-05-04 14:38 | 43.03717 | 14.65404 | 40082 ft | 437 kts | 353° |
| 2026-05-04 14:38 | 43.09792 | 14.65000 | 40092 ft | 437 kts | 353° |
| 2026-05-04 14:39 | 43.15878 | 14.64595 | 40084 ft | 438 kts | 353° |
| 2026-05-04 14:39 | 43.21972 | 14.64188 | 40083 ft | 438 kts | 353° |
| 2026-05-04 14:40 | 43.31113 | 14.63576 | 40086 ft | 439 kts | 353° |
| 2026-05-04 14:40 | 43.37223 | 14.63166 | 40087 ft | 440 kts | 353° |
| 2026-05-04 14:41 | 43.43339 | 14.62755 | 40087 ft | 440 kts | 353° |
| 2026-05-04 14:42 | 43.55581 | 14.61929 | 40085 ft | 441 kts | 353° |
| 2026-05-04 14:42 | 43.61715 | 14.61514 | 40083 ft | 441 kts | 353° |
| 2026-05-04 14:43 | 43.67847 | 14.61098 | 40092 ft | 441 kts | 353° |
| 2026-05-04 14:43 | 43.73984 | 14.60682 | 40086 ft | 442 kts | 353° |
| 2026-05-04 14:44 | 43.80121 | 14.60264 | 40085 ft | 442 kts | 353° |
| 2026-05-04 14:44 | 43.86262 | 14.59845 | 40083 ft | 442 kts | 353° |
| 2026-05-04 14:45 | 43.92398 | 14.59426 | 40084 ft | 442 kts | 353° |
| 2026-05-04 14:45 | 43.98541 | 14.59005 | 40085 ft | 442 kts | 353° |
| 2026-05-04 14:46 | 44.04677 | 14.58584 | 40088 ft | 442 kts | 353° |
| 2026-05-04 14:46 | 44.10822 | 14.58161 | 40087 ft | 443 kts | 353° |
| 2026-05-04 14:47 | 44.16985 | 14.57737 | 40083 ft | 443 kts | 353° |
| 2026-05-04 14:47 | 44.23151 | 14.57311 | 40094 ft | 443 kts | 353° |
| 2026-05-04 14:48 | 44.29315 | 14.56884 | 40093 ft | 444 kts | 353° |
| 2026-05-04 14:48 | 44.35491 | 14.56456 | 40098 ft | 444 kts | 353° |
| 2026-05-04 14:49 | 44.41623 | 14.56030 | 40103 ft | 444 kts | 353° |
| 2026-05-04 14:49 | 44.47800 | 14.55600 | 40110 ft | 445 kts | 354° |
| 2026-05-04 14:50 | 44.53991 | 14.55168 | 40114 ft | 446 kts | 354° |
| 2026-05-04 14:50 | 44.60185 | 14.54734 | 40115 ft | 446 kts | 354° |
| 2026-05-04 14:51 | 44.66377 | 14.54300 | 40116 ft | 446 kts | 354° |
| 2026-05-04 14:51 | 44.72578 | 14.53865 | 40117 ft | 446 kts | 354° |
| 2026-05-04 14:52 | 44.78781 | 14.53428 | 40113 ft | 447 kts | 354° |
| 2026-05-04 14:52 | 44.84998 | 14.52990 | 40116 ft | 447 kts | 354° |
| 2026-05-04 14:53 | 44.91215 | 14.52550 | 40115 ft | 448 kts | 354° |
| 2026-05-04 14:53 | 44.97434 | 14.52109 | 40117 ft | 448 kts | 354° |
| 2026-05-04 14:54 | 45.03658 | 14.51667 | 40106 ft | 448 kts | 354° |
| 2026-05-04 14:54 | 45.09878 | 14.51225 | 40103 ft | 448 kts | 354° |
| 2026-05-04 14:55 | 45.16108 | 14.50781 | 40101 ft | 448 kts | 354° |
| 2026-05-04 14:55 | 45.22338 | 14.50335 | 40103 ft | 448 kts | 354° |
| 2026-05-04 14:56 | 45.28573 | 14.49889 | 40103 ft | 449 kts | 354° |
| 2026-05-04 14:56 | 45.34816 | 14.49441 | 40105 ft | 449 kts | 354° |
| 2026-05-04 14:57 | 45.41056 | 14.48992 | 40103 ft | 449 kts | 354° |
| 2026-05-04 14:57 | 45.47306 | 14.48541 | 40100 ft | 450 kts | 354° |
| 2026-05-04 14:58 | 45.53566 | 14.48089 | 40092 ft | 451 kts | 354° |
| 2026-05-04 14:58 | 45.58774 | 14.47712 | 40089 ft | 451 kts | 354° |
| 2026-05-04 14:59 | 45.66101 | 14.47180 | 40093 ft | 451 kts | 354° |
| 2026-05-04 15:00 | 45.75512 | 14.46495 | 40077 ft | 452 kts | 354° |
| 2026-05-04 15:00 | 45.81788 | 14.46036 | 40067 ft | 452 kts | 354° |
| 2026-05-04 15:01 | 45.91205 | 14.45347 | 40069 ft | 452 kts | 354° |
| 2026-05-04 15:01 | 45.97480 | 14.44887 | 40057 ft | 452 kts | 354° |
| 2026-05-04 15:02 | 46.03714 | 14.44428 | 40059 ft | 452 kts | 354° |
| 2026-05-04 15:02 | 46.09990 | 14.43966 | 40054 ft | 452 kts | 354° |
| 2026-05-04 15:03 | 46.15257 | 14.43576 | 40049 ft | 453 kts | 354° |
| 2026-05-04 15:03 | 46.21555 | 14.43110 | 40046 ft | 453 kts | 354° |
| 2026-05-04 15:04 | 46.27850 | 14.42643 | 40051 ft | 453 kts | 354° |
| 2026-05-04 15:04 | 46.34112 | 14.42177 | 40053 ft | 454 kts | 354° |
| 2026-05-04 15:05 | 46.40415 | 14.41707 | 40048 ft | 453 kts | 354° |
| 2026-05-04 15:05 | 46.46721 | 14.41235 | 39993 ft | 453 kts | 354° |
| 2026-05-04 15:06 | 46.53024 | 14.40763 | 40007 ft | 455 kts | 354° |
| 2026-05-04 15:07 | 46.62497 | 14.40052 | 39997 ft | 454 kts | 354° |
| 2026-05-04 15:07 | 46.68809 | 14.39576 | 39998 ft | 454 kts | 354° |
| 2026-05-04 15:08 | 46.75122 | 14.39099 | 40000 ft | 454 kts | 354° |
| 2026-05-04 15:08 | 46.81430 | 14.38622 | 39992 ft | 454 kts | 354° |
| 2026-05-04 15:09 | 46.87755 | 14.38141 | 39998 ft | 456 kts | 354° |
| 2026-05-04 15:09 | 46.94091 | 14.37659 | 40002 ft | 456 kts | 354° |
| 2026-05-04 15:10 | 47.03593 | 14.36935 | 39995 ft | 456 kts | 354° |
| 2026-05-04 15:11 | 47.13101 | 14.36207 | 39996 ft | 456 kts | 354° |
| 2026-05-04 15:11 | 47.19434 | 14.35720 | 39994 ft | 456 kts | 354° |
| 2026-05-04 15:12 | 47.25766 | 14.35233 | 39979 ft | 456 kts | 354° |
| 2026-05-04 15:12 | 47.32096 | 14.34745 | 39976 ft | 455 kts | 354° |
| 2026-05-04 15:13 | 47.38422 | 14.34256 | 39972 ft | 455 kts | 354° |
| 2026-05-04 15:13 | 47.44738 | 14.33766 | 39960 ft | 454 kts | 354° |
| 2026-05-04 15:14 | 47.51056 | 14.33276 | 39965 ft | 454 kts | 354° |
| 2026-05-04 15:14 | 47.57335 | 14.32786 | 39957 ft | 456 kts | 354° |
| 2026-05-04 15:15 | 47.63669 | 14.32292 | 39948 ft | 456 kts | 354° |
| 2026-05-04 15:15 | 47.70000 | 14.31796 | 39929 ft | 455 kts | 354° |
| 2026-05-04 15:16 | 47.79495 | 14.31052 | 39933 ft | 457 kts | 354° |
| 2026-05-04 15:17 | 47.89003 | 14.30302 | 39922 ft | 456 kts | 354° |
| 2026-05-04 15:17 | 47.98498 | 14.29552 | 39911 ft | 456 kts | 354° |
| 2026-05-04 15:18 | 48.04834 | 14.29056 | 39909 ft | 456 kts | 355° |
| 2026-05-04 15:19 | 48.14376 | 14.29365 | 39913 ft | 457 kts | 358° |
| 2026-05-04 15:19 | 48.23919 | 14.29621 | 39914 ft | 457 kts | 358° |
| 2026-05-04 15:20 | 48.30273 | 14.29785 | 39915 ft | 457 kts | 358° |
| 2026-05-04 15:20 | 48.36638 | 14.29949 | 39921 ft | 458 kts | 358° |
| 2026-05-04 15:21 | 48.43017 | 14.30112 | 39923 ft | 458 kts | 358° |
| 2026-05-04 15:22 | 48.52578 | 14.30359 | 39927 ft | 458 kts | 358° |
| 2026-05-04 15:22 | 48.62146 | 14.30607 | 39930 ft | 458 kts | 358° |
| 2026-05-04 15:23 | 48.68480 | 14.30771 | 39937 ft | 458 kts | 358° |
| 2026-05-04 15:23 | 48.74855 | 14.30937 | 39950 ft | 458 kts | 358° |
| 2026-05-04 15:24 | 48.87609 | 14.31270 | 39948 ft | 458 kts | 358° |
| 2026-05-04 15:25 | 48.93983 | 14.31438 | 39954 ft | 458 kts | 358° |
| 2026-05-04 15:26 | 49.03535 | 14.31689 | 39951 ft | 458 kts | 358° |
| 2026-05-04 15:26 | 49.13086 | 14.31941 | 39952 ft | 457 kts | 358° |
| 2026-05-04 15:27 | 49.22625 | 14.32194 | 39961 ft | 457 kts | 358° |
| 2026-05-04 15:28 | 49.32182 | 14.32448 | 39964 ft | 458 kts | 357° |
| 2026-05-04 15:29 | 49.41744 | 14.32704 | 39962 ft | 458 kts | 357° |
| 2026-05-04 15:30 | 49.64055 | 14.33304 | 39968 ft | 458 kts | 357° |
| 2026-05-04 15:31 | 49.73571 | 14.33562 | 39968 ft | 458 kts | 358° |
| 2026-05-04 15:32 | 49.89488 | 14.33995 | 39965 ft | 458 kts | 358° |
| 2026-05-04 15:34 | 50.05404 | 14.34431 | 39966 ft | 458 kts | 358° |
| 2026-05-04 15:34 | 50.14956 | 14.34694 | 39966 ft | 458 kts | 358° |
| 2026-05-04 15:35 | 50.24523 | 14.34959 | 39963 ft | 459 kts | 357° |
| 2026-05-04 15:36 | 50.34114 | 14.35225 | 39962 ft | 460 kts | 358° |
| 2026-05-04 15:36 | 50.40509 | 14.35403 | 39963 ft | 460 kts | 358° |
| 2026-05-04 15:37 | 50.46903 | 14.35582 | 39971 ft | 460 kts | 357° |
| 2026-05-04 15:37 | 50.53307 | 14.35761 | 39963 ft | 460 kts | 357° |
| 2026-05-04 15:38 | 50.59709 | 14.35941 | 39961 ft | 460 kts | 357° |
| 2026-05-04 15:38 | 50.66066 | 14.36120 | 39955 ft | 460 kts | 357° |
| 2026-05-04 15:39 | 50.72472 | 14.36300 | 39970 ft | 460 kts | 357° |
| 2026-05-04 15:40 | 50.82079 | 14.36573 | 39954 ft | 460 kts | 357° |
| 2026-05-04 15:40 | 50.88483 | 14.36755 | 39954 ft | 460 kts | 357° |
| 2026-05-04 15:41 | 50.94850 | 14.36407 | 39973 ft | 454 kts | 347° |
| 2026-05-04 15:41 | 51.01123 | 14.35005 | 39964 ft | 455 kts | 348° |
| 2026-05-04 15:42 | 51.07400 | 14.33593 | 39969 ft | 456 kts | 348° |
| 2026-05-04 15:42 | 51.13691 | 14.32170 | 39955 ft | 458 kts | 348° |
| 2026-05-04 15:43 | 51.20001 | 14.30736 | 39964 ft | 458 kts | 348° |
| 2026-05-04 15:43 | 51.26312 | 14.29300 | 39953 ft | 458 kts | 348° |
| 2026-05-04 15:44 | 51.32619 | 14.27861 | 39952 ft | 458 kts | 348° |
| 2026-05-04 15:44 | 51.38928 | 14.26416 | 39952 ft | 458 kts | 348° |
| 2026-05-04 15:45 | 51.45234 | 14.24969 | 39953 ft | 457 kts | 348° |
| 2026-05-04 15:45 | 51.51527 | 14.23521 | 39948 ft | 457 kts | 348° |
| 2026-05-04 15:46 | 51.57821 | 14.22068 | 39947 ft | 457 kts | 348° |
| 2026-05-04 15:46 | 51.64111 | 14.20612 | 39943 ft | 457 kts | 348° |
| 2026-05-04 15:47 | 51.70361 | 14.19161 | 39949 ft | 457 kts | 347° |
| 2026-05-04 15:47 | 51.76688 | 14.17689 | 39942 ft | 456 kts | 347° |
| 2026-05-04 15:48 | 51.82930 | 14.16231 | 39943 ft | 456 kts | 347° |
| 2026-05-04 15:48 | 51.92351 | 14.14025 | 39960 ft | 456 kts | 347° |
| 2026-05-04 15:49 | 51.98627 | 14.12549 | 39937 ft | 455 kts | 347° |
| 2026-05-04 15:49 | 52.04903 | 14.11070 | 39940 ft | 456 kts | 347° |
| 2026-05-04 15:50 | 52.11176 | 14.09587 | 39941 ft | 456 kts | 347° |
| 2026-05-04 15:50 | 52.17450 | 14.08099 | 39964 ft | 456 kts | 347° |
| 2026-05-04 15:51 | 52.23717 | 14.06609 | 39945 ft | 454 kts | 347° |
| 2026-05-04 15:51 | 52.29971 | 14.05118 | 39944 ft | 454 kts | 347° |
| 2026-05-04 15:52 | 52.36230 | 14.03622 | 39948 ft | 455 kts | 347° |
| 2026-05-04 15:52 | 52.41434 | 14.02373 | 39959 ft | 455 kts | 347° |
| 2026-05-04 15:53 | 52.47693 | 14.00869 | 39953 ft | 455 kts | 347° |
| 2026-05-04 15:53 | 52.53955 | 13.99360 | 39955 ft | 455 kts | 347° |
| 2026-05-04 15:54 | 52.60215 | 13.97846 | 39954 ft | 455 kts | 347° |
| 2026-05-04 15:54 | 52.66477 | 13.96328 | 39954 ft | 455 kts | 347° |
| 2026-05-04 15:55 | 52.72741 | 13.94805 | 39959 ft | 455 kts | 347° |
| 2026-05-04 15:55 | 52.78998 | 13.93279 | 39958 ft | 455 kts | 347° |
| 2026-05-04 15:56 | 52.85260 | 13.91747 | 39958 ft | 455 kts | 347° |
| 2026-05-04 15:56 | 52.91521 | 13.90211 | 39957 ft | 455 kts | 347° |
| 2026-05-04 15:57 | 52.97785 | 13.88670 | 39956 ft | 455 kts | 347° |
| 2026-05-04 15:57 | 53.04046 | 13.87125 | 39953 ft | 455 kts | 347° |
| 2026-05-04 15:58 | 53.10312 | 13.85574 | 39962 ft | 455 kts | 347° |
| 2026-05-04 15:58 | 53.16579 | 13.84019 | 39953 ft | 455 kts | 347° |
| 2026-05-04 15:59 | 53.22850 | 13.82459 | 39960 ft | 456 kts | 347° |
| 2026-05-04 15:59 | 53.29084 | 13.80902 | 39949 ft | 456 kts | 347° |
| 2026-05-04 16:00 | 53.35360 | 13.79331 | 39949 ft | 456 kts | 347° |
| 2026-05-04 16:00 | 53.41641 | 13.77753 | 39950 ft | 456 kts | 347° |
| 2026-05-04 16:01 | 53.47923 | 13.76171 | 39951 ft | 457 kts | 347° |
| 2026-05-04 16:01 | 53.54212 | 13.74581 | 39946 ft | 457 kts | 347° |
| 2026-05-04 16:02 | 53.60504 | 13.72987 | 39942 ft | 457 kts | 347° |
| 2026-05-04 16:03 | 53.69943 | 13.70586 | 39945 ft | 457 kts | 347° |
| 2026-05-04 16:03 | 53.76235 | 13.68980 | 39943 ft | 458 kts | 347° |
| 2026-05-04 16:04 | 53.82537 | 13.67365 | 39952 ft | 458 kts | 347° |
| 2026-05-04 16:04 | 53.91984 | 13.64936 | 39947 ft | 458 kts | 347° |
| 2026-05-04 16:05 | 53.98242 | 13.63321 | 39969 ft | 458 kts | 347° |
| 2026-05-04 16:06 | 54.07732 | 13.60863 | 39949 ft | 461 kts | 347° |
| 2026-05-04 16:07 | 54.20415 | 13.57560 | 39950 ft | 461 kts | 347° |
| 2026-05-04 16:08 | 54.33117 | 13.54230 | 39951 ft | 463 kts | 347° |
| 2026-05-04 16:09 | 54.49039 | 13.50028 | 39956 ft | 463 kts | 347° |
| 2026-05-04 16:10 | 54.61815 | 13.46633 | 39940 ft | 465 kts | 347° |
| 2026-05-04 16:11 | 54.74573 | 13.43222 | 39947 ft | 465 kts | 347° |
| 2026-05-04 16:12 | 54.93638 | 13.37609 | 39940 ft | 460 kts | 340° |
| 2026-05-04 16:13 | 55.05932 | 13.31608 | 39947 ft | 460 kts | 340° |
| 2026-05-04 16:14 | 55.18258 | 13.25516 | 39935 ft | 459 kts | 340° |
| 2026-05-04 16:16 | 55.33604 | 13.17876 | 39918 ft | 459 kts | 340° |
| 2026-05-04 16:17 | 55.48929 | 13.10184 | 39934 ft | 459 kts | 340° |
| 2026-05-04 16:18 | 55.61199 | 13.03980 | 39945 ft | 458 kts | 340° |
| 2026-05-04 16:19 | 55.76464 | 12.96206 | 39935 ft | 457 kts | 339° |
| 2026-05-04 16:20 | 55.91906 | 12.89436 | 39951 ft | 458 kts | 341° |
| 2026-05-04 16:22 | 56.07359 | 12.82592 | 39925 ft | 458 kts | 341° |
| 2026-05-04 16:23 | 56.25880 | 12.74312 | 39938 ft | 456 kts | 341° |
| 2026-05-04 16:25 | 56.44304 | 12.65993 | 39932 ft | 456 kts | 341° |
| 2026-05-04 16:26 | 56.65805 | 12.56179 | 39922 ft | 455 kts | 341° |
| 2026-05-04 16:28 | 56.81155 | 12.49102 | 39925 ft | 455 kts | 341° |
| 2026-05-04 16:29 | 57.02620 | 12.39103 | 39889 ft | 455 kts | 341° |
| 2026-05-04 16:31 | 57.17954 | 12.31888 | 39887 ft | 455 kts | 340° |
| 2026-05-04 16:32 | 57.36359 | 12.23145 | 39882 ft | 456 kts | 340° |
| 2026-05-04 16:33 | 57.48646 | 12.17258 | 39865 ft | 456 kts | 340° |
| 2026-05-04 16:34 | 57.57854 | 12.12819 | 39859 ft | 456 kts | 340° |
| 2026-05-04 16:35 | 57.76278 | 12.03868 | 39883 ft | 456 kts | 340° |
| 2026-05-04 16:36 | 57.85484 | 11.99360 | 39877 ft | 456 kts | 340° |
| 2026-05-04 16:37 | 57.94646 | 11.94848 | 39887 ft | 455 kts | 340° |
| 2026-05-04 16:38 | 58.06852 | 11.88803 | 39837 ft | 453 kts | 340° |
| 2026-05-04 16:39 | 58.22104 | 11.81188 | 39810 ft | 453 kts | 340° |
| 2026-05-04 16:40 | 58.34300 | 11.75049 | 39801 ft | 453 kts | 340° |
| 2026-05-04 16:41 | 58.49535 | 11.67320 | 39808 ft | 453 kts | 340° |
| 2026-05-04 16:42 | 58.57596 | 11.63202 | 39673 ft | 444 kts | 339° |
| 2026-05-04 16:43 | 58.63585 | 11.60127 | 37886 ft | 450 kts | 339° |
| 2026-05-04 16:43 | 58.69621 | 11.57020 | 36039 ft | 448 kts | 338° |
| 2026-05-04 16:43 | 58.72626 | 11.55469 | 35176 ft | 447 kts | 338° |
| 2026-05-04 16:44 | 58.84536 | 11.49295 | 31635 ft | 440 kts | 338° |
| 2026-05-04 16:45 | 58.90390 | 11.46244 | 30136 ft | 430 kts | 337° |
| 2026-05-04 16:46 | 58.98995 | 11.41737 | 27739 ft | 426 kts | 337° |
| 2026-05-04 16:46 | 59.04653 | 11.38764 | 26342 ft | 414 kts | 336° |
| 2026-05-04 16:47 | 59.09994 | 11.35951 | 25814 ft | 383 kts | 335° |
| 2026-05-04 16:47 | 59.14984 | 11.33355 | 25333 ft | 364 kts | 338° |
| 2026-05-04 16:48 | 59.23046 | 11.33529 | 24271 ft | 409 kts | 352° |
| 2026-05-04 16:48 | 59.25907 | 11.33693 | 23912 ft | 413 kts | 351° |
| 2026-05-04 16:49 | 59.31681 | 11.34015 | 23225 ft | 415 kts | 351° |
| 2026-05-04 16:49 | 59.37420 | 11.34332 | 22437 ft | 410 kts | 351° |
| 2026-05-04 16:50 | 59.43091 | 11.34645 | 21748 ft | 405 kts | 351° |
| 2026-05-04 16:50 | 59.48691 | 11.34955 | 21027 ft | 400 kts | 351° |
| 2026-05-04 16:51 | 59.54233 | 11.35262 | 20233 ft | 396 kts | 351° |
| 2026-05-04 16:51 | 59.56968 | 11.35415 | 19620 ft | 392 kts | 351° |
| 2026-05-04 16:51 | 59.62371 | 11.35716 | 18397 ft | 384 kts | 351° |
| 2026-05-04 16:52 | 59.67664 | 11.36013 | 17120 ft | 377 kts | 351° |
| 2026-05-04 16:52 | 59.70268 | 11.36161 | 16553 ft | 372 kts | 351° |
| 2026-05-04 16:53 | 59.75368 | 11.36449 | 15420 ft | 363 kts | 353° |
| 2026-05-04 16:53 | 59.82782 | 11.36868 | 13850 ft | 351 kts | 355° |
| 2026-05-04 16:54 | 59.85210 | 11.37005 | 13315 ft | 348 kts | 355° |
| 2026-05-04 16:55 | 59.94708 | 11.37541 | 11236 ft | 334 kts | 356° |
| 2026-05-04 16:55 | 59.99311 | 11.37802 | 10592 ft | 328 kts | 355° |
| 2026-05-04 16:56 | 60.03720 | 11.38055 | 10201 ft | 306 kts | 355° |
| 2026-05-04 16:56 | 60.09894 | 11.38409 | 9713 ft | 289 kts | 355° |
| 2026-05-04 16:57 | 60.11897 | 11.38524 | 9384 ft | 287 kts | 355° |
| 2026-05-04 16:57 | 60.15874 | 11.38752 | 8662 ft | 284 kts | 355° |
| 2026-05-04 16:58 | 60.21746 | 11.39091 | 7652 ft | 279 kts | 355° |
| 2026-05-04 16:58 | 60.23682 | 11.39202 | 7318 ft | 278 kts | 355° |
| 2026-05-04 16:59 | 60.27525 | 11.39425 | 6711 ft | 275 kts | 356° |
| 2026-05-04 17:00 | 60.34842 | 11.39849 | 6111 ft | 250 kts | 355° |
| 2026-05-04 17:00 | 60.39715 | 11.38307 | 5486 ft | 228 kts | 311° |
| 2026-05-04 17:01 | 60.40773 | 11.32906 | 5188 ft | 198 kts | 264° |
| 2026-05-04 17:01 | 60.40372 | 11.27601 | 4890 ft | 190 kts | 258° |
| 2026-05-04 17:02 | 60.38823 | 11.23498 | 4466 ft | 194 kts | 213° |
| 2026-05-04 17:02 | 60.36356 | 11.21696 | 4064 ft | 182 kts | 203° |
| 2026-05-04 17:03 | 60.35161 | 11.20993 | 3829 ft | 177 kts | 202° |
| 2026-05-04 17:03 | 60.33983 | 11.20301 | 3575 ft | 176 kts | 202° |
| 2026-05-04 17:03 | 60.31638 | 11.18936 | 3143 ft | 174 kts | 202° |
| 2026-05-04 17:04 | 60.29343 | 11.17598 | 2665 ft | 161 kts | 202° |
| 2026-05-04 17:04 | 60.27251 | 11.16383 | 2235 ft | 155 kts | 202° |
| 2026-05-04 17:05 | 60.25276 | 11.15239 | 1831 ft | 133 kts | 202° |
| 2026-05-04 17:05 | 60.23634 | 11.14286 | 1470 ft | 117 kts | 203° |
| 2026-05-04 17:06 | 60.22132 | 11.13410 | 1155 ft | 112 kts | 203° |
| 2026-05-04 17:06 | 60.21369 | 11.12959 | 1002 ft | 116 kts | 202° |
| 2026-05-04 17:07 | 60.19841 | 11.12089 | 695 ft | 110 kts | 200° |
| 2026-05-04 17:07 | 60.19381 | 11.11816 | 684 ft | 97 kts | 195° |
| 2026-05-04 17:07 | 60.18684 | 11.11421 | 686 ft | 42 kts | 196° |
| 2026-05-04 17:07 | 60.18488 | 11.11245 | 684 ft | 24 kts | 217° |
| 2026-05-04 17:08 | 60.18437 | 11.11062 | 684 ft | 14 kts | 274° |
| 2026-05-04 17:08 | 60.18508 | 11.10755 | 684 ft | 10 kts | 2° |
| 2026-05-04 17:08 | 60.18597 | 11.10807 | 682 ft | 17 kts | 17° |
| 2026-05-04 17:09 | 60.18708 | 11.10869 | 685 ft | 12 kts | 16° |
| 2026-05-04 17:09 | 60.18802 | 11.10924 | 685 ft | 17 kts | 16° |
| 2026-05-04 17:09 | 60.18931 | 11.10999 | 685 ft | 22 kts | 16° |
| 2026-05-04 17:10 | 60.19209 | 11.11157 | 682 ft | 18 kts | 16° |
| 2026-05-04 17:10 | 60.19453 | 11.10997 | 683 ft | 16 kts | 286° |
| 2026-05-04 17:11 | 60.19483 | 11.10784 | 686 ft | 16 kts | 285° |
| 2026-05-04 17:11 | 60.19511 | 11.10587 | 683 ft | 15 kts | 287° |
| 2026-05-04 17:11 | 60.19521 | 11.10401 | 681 ft | 3 kts | 216° |
| 2026-05-04 17:12 | 60.19488 | 11.10379 | 684 ft | 6 kts | 195° |
| 2026-05-04 17:12 | 60.19455 | 11.10361 | 688 ft | 0 kts | 196° |